sensor_id;sensor_type;location;lat;lon;timestamp;temperature;humidity
43665;DHT22;29263;48.172;11.484;2023-08-31T00:01:49;13.40;99.90
43665;DHT22;29263;48.172;11.484;2023-08-31T00:04:15;13.30;99.90
43665;DHT22;29263;48.172;11.484;2023-08-31T00:06:42;13.30;99.90
43665;DHT22;29263;48.172;11.484;2023-08-31T00:09:10;13.20;99.90
43665;DHT22;29263;48.172;11.484;2023-08-31T00:11:36;13.20;99.90
43665;DHT22;29263;48.172;11.484;2023-08-31T00:14:02;13.20;99.90
43665;DHT22;29263;48.172;11.484;2023-08-31T00:16:28;13.20;99.90
43665;DHT22;29263;48.172;11.484;2023-08-31T00:18:56;13.10;99.90
43665;DHT22;29263;48.172;11.484;2023-08-31T00:21:22;13.30;99.90
43665;DHT22;29263;48.172;11.484;2023-08-31T00:23:47;12.90;99.90
43665;DHT22;29263;48.172;11.484;2023-08-31T00:26:13;13.00;99.90
43665;DHT22;29263;48.172;11.484;2023-08-31T00:28:40;13.10;99.90
43665;DHT22;29263;48.172;11.484;2023-08-31T00:31:08;12.90;99.90
43665;DHT22;29263;48.172;11.484;2023-08-31T00:33:34;13.00;99.90
43665;DHT22;29263;48.172;11.484;2023-08-31T00:36:00;12.90;99.90
43665;DHT22;29263;48.172;11.484;2023-08-31T00:38:30;12.90;99.90
43665;DHT22;29263;48.172;11.484;2023-08-31T00:40:56;12.80;99.90
43665;DHT22;29263;48.172;11.484;2023-08-31T00:43:22;12.80;99.90
43665;DHT22;29263;48.172;11.484;2023-08-31T00:45:49;12.80;99.90
43665;DHT22;29263;48.172;11.484;2023-08-31T00:48:17;13.10;99.90
43665;DHT22;29263;48.172;11.484;2023-08-31T00:50:48;13.00;99.90
43665;DHT22;29263;48.172;11.484;2023-08-31T00:53:15;12.80;99.90
43665;DHT22;29263;48.172;11.484;2023-08-31T00:55:43;12.60;99.90
43665;DHT22;29263;48.172;11.484;2023-08-31T00:58:09;12.80;99.90
43665;DHT22;29263;48.172;11.484;2023-08-31T01:03:41;13.00;99.90
43665;DHT22;29263;48.172;11.484;2023-08-31T01:09:09;12.80;99.90
43665;DHT22;29263;48.172;11.484;2023-08-31T01:11:50;12.60;99.90
43665;DHT22;29263;48.172;11.484;2023-08-31T01:14:23;12.70;99.90
43665;DHT22;29263;48.172;11.484;2023-08-31T01:16:51;12.60;99.90
43665;DHT22;29263;48.172;11.484;2023-08-31T01:22:03;12.50;99.90
43665;DHT22;29263;48.172;11.484;2023-08-31T01:24:31;12.50;99.90
43665;DHT22;29263;48.172;11.484;2023-08-31T01:26:57;12.50;99.90
43665;DHT22;29263;48.172;11.484;2023-08-31T01:29:23;12.30;99.90
43665;DHT22;29263;48.172;11.484;2023-08-31T01:31:48;12.80;99.90
43665;DHT22;29263;48.172;11.484;2023-08-31T01:34:14;11.80;99.90
43665;DHT22;29263;48.172;11.484;2023-08-31T01:36:43;12.90;99.90
43665;DHT22;29263;48.172;11.484;2023-08-31T01:39:17;12.30;99.90
43665;DHT22;29263;48.172;11.484;2023-08-31T01:41:51;12.30;99.90
43665;DHT22;29263;48.172;11.484;2023-08-31T01:44:21;12.30;99.90
43665;DHT22;29263;48.172;11.484;2023-08-31T01:46:50;12.40;99.90
43665;DHT22;29263;48.172;11.484;2023-08-31T01:49:16;12.40;99.90
43665;DHT22;29263;48.172;11.484;2023-08-31T01:51:41;12.40;99.90
43665;DHT22;29263;48.172;11.484;2023-08-31T01:54:07;12.40;99.90
43665;DHT22;29263;48.172;11.484;2023-08-31T01:56:33;12.40;99.90
43665;DHT22;29263;48.172;11.484;2023-08-31T01:58:58;12.40;99.90
43665;DHT22;29263;48.172;11.484;2023-08-31T02:01:24;12.50;99.90
43665;DHT22;29263;48.172;11.484;2023-08-31T02:03:49;12.50;99.90
43665;DHT22;29263;48.172;11.484;2023-08-31T02:06:15;12.40;99.90
43665;DHT22;29263;48.172;11.484;2023-08-31T02:08:41;12.60;99.90
43665;DHT22;29263;48.172;11.484;2023-08-31T02:11:09;12.50;99.90
43665;DHT22;29263;48.172;11.484;2023-08-31T02:13:34;12.50;99.90
43665;DHT22;29263;48.172;11.484;2023-08-31T02:16:00;12.60;99.90
43665;DHT22;29263;48.172;11.484;2023-08-31T02:18:25;12.60;99.90
43665;DHT22;29263;48.172;11.484;2023-08-31T02:20:54;12.60;99.90
43665;DHT22;29263;48.172;11.484;2023-08-31T02:23:19;12.80;99.90
43665;DHT22;29263;48.172;11.484;2023-08-31T02:25:45;12.80;99.90
43665;DHT22;29263;48.172;11.484;2023-08-31T02:28:10;12.90;99.90
43665;DHT22;29263;48.172;11.484;2023-08-31T02:30:37;12.80;99.90
43665;DHT22;29263;48.172;11.484;2023-08-31T02:33:03;13.40;99.90
43665;DHT22;29263;48.172;11.484;2023-08-31T02:35:29;13.00;99.90
43665;DHT22;29263;48.172;11.484;2023-08-31T02:37:54;13.00;99.90
43665;DHT22;29263;48.172;11.484;2023-08-31T02:40:20;13.00;99.90
43665;DHT22;29263;48.172;11.484;2023-08-31T02:42:49;13.40;99.90
43665;DHT22;29263;48.172;11.484;2023-08-31T02:45:15;13.00;99.90
43665;DHT22;29263;48.172;11.484;2023-08-31T02:47:43;12.90;99.90
43665;DHT22;29263;48.172;11.484;2023-08-31T02:50:09;12.80;99.90
43665;DHT22;29263;48.172;11.484;2023-08-31T02:52:34;12.90;99.90
43665;DHT22;29263;48.172;11.484;2023-08-31T02:55:00;12.80;99.90
43665;DHT22;29263;48.172;11.484;2023-08-31T02:57:26;12.80;99.90
43665;DHT22;29263;48.172;11.484;2023-08-31T02:59:51;12.60;99.90
43665;DHT22;29263;48.172;11.484;2023-08-31T03:02:17;12.70;99.90
43665;DHT22;29263;48.172;11.484;2023-08-31T03:04:43;12.70;99.90
43665;DHT22;29263;48.172;11.484;2023-08-31T03:07:09;12.70;99.90
43665;DHT22;29263;48.172;11.484;2023-08-31T03:09:39;12.70;99.90
43665;DHT22;29263;48.172;11.484;2023-08-31T03:12:05;12.70;99.90
43665;DHT22;29263;48.172;11.484;2023-08-31T03:14:31;12.70;99.90
43665;DHT22;29263;48.172;11.484;2023-08-31T03:16:56;12.70;99.90
43665;DHT22;29263;48.172;11.484;2023-08-31T03:19:22;12.70;99.90
43665;DHT22;29263;48.172;11.484;2023-08-31T03:21:48;12.80;99.90
43665;DHT22;29263;48.172;11.484;2023-08-31T03:24:13;12.80;99.90
43665;DHT22;29263;48.172;11.484;2023-08-31T03:26:39;12.70;99.90
43665;DHT22;29263;48.172;11.484;2023-08-31T03:29:05;12.80;99.90
43665;DHT22;29263;48.172;11.484;2023-08-31T03:31:30;12.80;99.90
43665;DHT22;29263;48.172;11.484;2023-08-31T03:33:57;12.60;99.90
43665;DHT22;29263;48.172;11.484;2023-08-31T03:36:22;12.40;99.90
43665;DHT22;29263;48.172;11.484;2023-08-31T03:38:49;12.90;99.90
43665;DHT22;29263;48.172;11.484;2023-08-31T03:41:15;12.90;99.90
43665;DHT22;29263;48.172;11.484;2023-08-31T03:43:40;13.00;99.90
43665;DHT22;29263;48.172;11.484;2023-08-31T03:46:06;12.90;99.90
43665;DHT22;29263;48.172;11.484;2023-08-31T03:48:32;12.90;99.90
43665;DHT22;29263;48.172;11.484;2023-08-31T03:50:57;12.90;99.90
43665;DHT22;29263;48.172;11.484;2023-08-31T03:53:23;13.00;99.90
43665;DHT22;29263;48.172;11.484;2023-08-31T03:55:49;12.90;99.90
43665;DHT22;29263;48.172;11.484;2023-08-31T03:58:15;12.20;99.90
43665;DHT22;29263;48.172;11.484;2023-08-31T04:00:41;13.00;99.90
43665;DHT22;29263;48.172;11.484;2023-08-31T04:03:08;12.90;99.90
43665;DHT22;29263;48.172;11.484;2023-08-31T04:05:34;13.00;99.90
43665;DHT22;29263;48.172;11.484;2023-08-31T04:08:01;12.90;99.90
43665;DHT22;29263;48.172;11.484;2023-08-31T04:10:27;12.90;99.90
43665;DHT22;29263;48.172;11.484;2023-08-31T04:12:55;13.00;99.90
43665;DHT22;29263;48.172;11.484;2023-08-31T04:15:24;12.90;99.90
43665;DHT22;29263;48.172;11.484;2023-08-31T04:17:49;12.60;99.90
43665;DHT22;29263;48.172;11.484;2023-08-31T04:20:15;12.90;99.90
43665;DHT22;29263;48.172;11.484;2023-08-31T04:22:41;12.90;99.90
43665;DHT22;29263;48.172;11.484;2023-08-31T04:25:07;12.90;99.90
43665;DHT22;29263;48.172;11.484;2023-08-31T04:27:32;12.90;99.90
43665;DHT22;29263;48.172;11.484;2023-08-31T04:30:07;12.90;99.90
43665;DHT22;29263;48.172;11.484;2023-08-31T04:32:33;12.90;99.90
43665;DHT22;29263;48.172;11.484;2023-08-31T04:34:59;12.90;99.90
43665;DHT22;29263;48.172;11.484;2023-08-31T04:37:24;12.50;99.90
43665;DHT22;29263;48.172;11.484;2023-08-31T04:39:50;12.80;99.90
43665;DHT22;29263;48.172;11.484;2023-08-31T04:42:16;13.10;99.90
43665;DHT22;29263;48.172;11.484;2023-08-31T04:44:42;12.80;99.90
43665;DHT22;29263;48.172;11.484;2023-08-31T04:47:08;12.80;99.90
43665;DHT22;29263;48.172;11.484;2023-08-31T04:49:33;12.80;99.90
43665;DHT22;29263;48.172;11.484;2023-08-31T04:51:59;13.00;99.90
43665;DHT22;29263;48.172;11.484;2023-08-31T04:54:25;12.60;99.90
43665;DHT22;29263;48.172;11.484;2023-08-31T04:56:51;13.50;99.90
43665;DHT22;29263;48.172;11.484;2023-08-31T04:59:16;12.90;99.90
43665;DHT22;29263;48.172;11.484;2023-08-31T05:01:42;12.70;99.90
43665;DHT22;29263;48.172;11.484;2023-08-31T05:04:08;12.70;99.90
43665;DHT22;29263;48.172;11.484;2023-08-31T05:06:34;12.70;99.90
43665;DHT22;29263;48.172;11.484;2023-08-31T05:09:00;12.70;99.90
43665;DHT22;29263;48.172;11.484;2023-08-31T05:11:26;12.60;99.90
43665;DHT22;29263;48.172;11.484;2023-08-31T05:13:51;12.80;99.90
43665;DHT22;29263;48.172;11.484;2023-08-31T05:16:17;13.40;99.90
43665;DHT22;29263;48.172;11.484;2023-08-31T05:18:42;12.80;99.90
43665;DHT22;29263;48.172;11.484;2023-08-31T05:21:08;12.90;99.90
43665;DHT22;29263;48.172;11.484;2023-08-31T05:23:34;12.80;99.90
43665;DHT22;29263;48.172;11.484;2023-08-31T05:26:00;12.80;99.90
43665;DHT22;29263;48.172;11.484;2023-08-31T05:28:27;12.90;99.90
43665;DHT22;29263;48.172;11.484;2023-08-31T05:30:55;12.90;99.90
43665;DHT22;29263;48.172;11.484;2023-08-31T05:33:21;12.90;99.90
43665;DHT22;29263;48.172;11.484;2023-08-31T05:36:14;12.90;99.90
43665;DHT22;29263;48.172;11.484;2023-08-31T05:38:40;12.90;99.90
43665;DHT22;29263;48.172;11.484;2023-08-31T05:41:09;12.90;99.90
43665;DHT22;29263;48.172;11.484;2023-08-31T05:43:38;12.90;99.90
43665;DHT22;29263;48.172;11.484;2023-08-31T05:49:04;13.10;99.90
43665;DHT22;29263;48.172;11.484;2023-08-31T05:51:30;13.10;99.90
43665;DHT22;29263;48.172;11.484;2023-08-31T05:54:04;13.10;99.90
43665;DHT22;29263;48.172;11.484;2023-08-31T05:56:31;13.20;99.90
43665;DHT22;29263;48.172;11.484;2023-08-31T05:58:57;13.20;99.90
43665;DHT22;29263;48.172;11.484;2023-08-31T06:01:28;13.20;99.90
43665;DHT22;29263;48.172;11.484;2023-08-31T06:03:56;13.20;99.90
43665;DHT22;29263;48.172;11.484;2023-08-31T06:06:29;13.20;99.90
43665;DHT22;29263;48.172;11.484;2023-08-31T06:08:58;13.20;99.90
43665;DHT22;29263;48.172;11.484;2023-08-31T06:11:24;13.20;99.90
43665;DHT22;29263;48.172;11.484;2023-08-31T06:13:50;13.30;99.90
43665;DHT22;29263;48.172;11.484;2023-08-31T06:16:19;13.30;99.90
43665;DHT22;29263;48.172;11.484;2023-08-31T06:18:47;13.30;99.90
43665;DHT22;29263;48.172;11.484;2023-08-31T06:21:13;13.40;99.90
43665;DHT22;29263;48.172;11.484;2023-08-31T06:23:39;13.40;99.90
43665;DHT22;29263;48.172;11.484;2023-08-31T06:26:16;13.40;99.90
43665;DHT22;29263;48.172;11.484;2023-08-31T06:28:48;13.40;99.90
43665;DHT22;29263;48.172;11.484;2023-08-31T06:31:18;13.50;99.90
43665;DHT22;29263;48.172;11.484;2023-08-31T06:37:21;13.50;99.90
43665;DHT22;29263;48.172;11.484;2023-08-31T06:39:59;13.50;99.90
43665;DHT22;29263;48.172;11.484;2023-08-31T06:42:27;13.50;99.90
43665;DHT22;29263;48.172;11.484;2023-08-31T06:44:53;13.50;99.90
43665;DHT22;29263;48.172;11.484;2023-08-31T06:47:43;13.60;99.90
43665;DHT22;29263;48.172;11.484;2023-08-31T06:50:25;13.60;99.90
43665;DHT22;29263;48.172;11.484;2023-08-31T06:52:51;13.70;99.90
43665;DHT22;29263;48.172;11.484;2023-08-31T06:55:19;13.70;99.90
43665;DHT22;29263;48.172;11.484;2023-08-31T06:58:01;13.70;99.90
43665;DHT22;29263;48.172;11.484;2023-08-31T07:00:29;13.80;99.90
43665;DHT22;29263;48.172;11.484;2023-08-31T07:03:07;13.90;99.90
43665;DHT22;29263;48.172;11.484;2023-08-31T07:05:34;13.90;99.90
43665;DHT22;29263;48.172;11.484;2023-08-31T07:08:05;14.00;99.90
43665;DHT22;29263;48.172;11.484;2023-08-31T07:10:31;14.00;99.90
43665;DHT22;29263;48.172;11.484;2023-08-31T07:12:57;14.00;99.90
43665;DHT22;29263;48.172;11.484;2023-08-31T07:15:23;14.10;99.90
43665;DHT22;29263;48.172;11.484;2023-08-31T07:17:49;14.30;99.90
43665;DHT22;29263;48.172;11.484;2023-08-31T07:20:17;14.30;99.90
43665;DHT22;29263;48.172;11.484;2023-08-31T07:22:43;14.20;99.90
43665;DHT22;29263;48.172;11.484;2023-08-31T07:25:22;14.20;99.90
43665;DHT22;29263;48.172;11.484;2023-08-31T07:27:54;14.30;99.90
43665;DHT22;29263;48.172;11.484;2023-08-31T07:30:20;14.30;99.90
43665;DHT22;29263;48.172;11.484;2023-08-31T07:32:48;14.40;99.90
43665;DHT22;29263;48.172;11.484;2023-08-31T07:35:27;14.40;99.90
43665;DHT22;29263;48.172;11.484;2023-08-31T07:38:09;14.50;99.90
43665;DHT22;29263;48.172;11.484;2023-08-31T07:40:42;14.50;99.90
43665;DHT22;29263;48.172;11.484;2023-08-31T07:43:51;14.50;99.90
43665;DHT22;29263;48.172;11.484;2023-08-31T07:46:42;14.60;99.90
43665;DHT22;29263;48.172;11.484;2023-08-31T07:49:08;14.60;99.90
43665;DHT22;29263;48.172;11.484;2023-08-31T07:51:34;14.70;99.90
43665;DHT22;29263;48.172;11.484;2023-08-31T07:54:02;14.60;99.90
43665;DHT22;29263;48.172;11.484;2023-08-31T08:02:45;14.80;99.90
43665;DHT22;29263;48.172;11.484;2023-08-31T08:05:11;14.90;99.90
43665;DHT22;29263;48.172;11.484;2023-08-31T08:07:37;14.90;99.90
43665;DHT22;29263;48.172;11.484;2023-08-31T08:10:03;15.10;99.90
43665;DHT22;29263;48.172;11.484;2023-08-31T08:12:37;15.10;99.90
43665;DHT22;29263;48.172;11.484;2023-08-31T08:15:05;15.20;99.90
43665;DHT22;29263;48.172;11.484;2023-08-31T08:17:31;15.30;99.90
43665;DHT22;29263;48.172;11.484;2023-08-31T08:19:56;15.30;99.90
43665;DHT22;29263;48.172;11.484;2023-08-31T08:22:22;15.30;99.90
43665;DHT22;29263;48.172;11.484;2023-08-31T08:24:49;15.20;99.90
43665;DHT22;29263;48.172;11.484;2023-08-31T08:27:15;15.10;99.90
43665;DHT22;29263;48.172;11.484;2023-08-31T08:29:45;15.10;99.90
43665;DHT22;29263;48.172;11.484;2023-08-31T08:32:10;15.00;99.90
43665;DHT22;29263;48.172;11.484;2023-08-31T08:34:36;15.00;99.90
43665;DHT22;29263;48.172;11.484;2023-08-31T08:37:02;15.00;99.90
43665;DHT22;29263;48.172;11.484;2023-08-31T08:39:29;15.00;99.90
43665;DHT22;29263;48.172;11.484;2023-08-31T08:41:57;15.10;99.90
43665;DHT22;29263;48.172;11.484;2023-08-31T08:44:25;15.10;99.90
43665;DHT22;29263;48.172;11.484;2023-08-31T08:46:52;15.10;99.90
43665;DHT22;29263;48.172;11.484;2023-08-31T08:49:18;15.10;99.90
43665;DHT22;29263;48.172;11.484;2023-08-31T08:51:48;15.30;99.90
43665;DHT22;29263;48.172;11.484;2023-08-31T08:54:17;15.40;99.90
43665;DHT22;29263;48.172;11.484;2023-08-31T08:56:43;15.40;99.90
43665;DHT22;29263;48.172;11.484;2023-08-31T08:59:09;15.50;99.90
43665;DHT22;29263;48.172;11.484;2023-08-31T09:01:38;15.70;99.90
43665;DHT22;29263;48.172;11.484;2023-08-31T09:04:04;15.80;99.90
43665;DHT22;29263;48.172;11.484;2023-08-31T09:06:30;15.80;99.90
43665;DHT22;29263;48.172;11.484;2023-08-31T09:08:56;15.80;99.90
43665;DHT22;29263;48.172;11.484;2023-08-31T09:11:22;15.70;99.90
43665;DHT22;29263;48.172;11.484;2023-08-31T09:13:49;15.70;99.90
43665;DHT22;29263;48.172;11.484;2023-08-31T09:16:26;15.70;99.90
43665;DHT22;29263;48.172;11.484;2023-08-31T09:18:54;15.60;99.90
43665;DHT22;29263;48.172;11.484;2023-08-31T09:21:19;15.50;99.90
43665;DHT22;29263;48.172;11.484;2023-08-31T09:23:56;15.50;99.90
43665;DHT22;29263;48.172;11.484;2023-08-31T09:26:23;15.50;99.90
43665;DHT22;29263;48.172;11.484;2023-08-31T09:28:49;15.50;99.90
43665;DHT22;29263;48.172;11.484;2023-08-31T09:31:14;15.50;99.90
43665;DHT22;29263;48.172;11.484;2023-08-31T09:33:50;15.50;99.90
43665;DHT22;29263;48.172;11.484;2023-08-31T09:36:16;15.50;99.90
43665;DHT22;29263;48.172;11.484;2023-08-31T09:38:42;15.60;99.90
43665;DHT22;29263;48.172;11.484;2023-08-31T09:41:11;15.70;99.90
43665;DHT22;29263;48.172;11.484;2023-08-31T09:43:37;15.80;99.90
43665;DHT22;29263;48.172;11.484;2023-08-31T09:46:04;15.90;99.90
43665;DHT22;29263;48.172;11.484;2023-08-31T09:48:30;15.90;99.90
43665;DHT22;29263;48.172;11.484;2023-08-31T09:50:57;15.90;99.90
43665;DHT22;29263;48.172;11.484;2023-08-31T09:53:27;16.00;99.90
43665;DHT22;29263;48.172;11.484;2023-08-31T09:55:55;16.00;99.90
43665;DHT22;29263;48.172;11.484;2023-08-31T09:58:22;15.90;99.90
43665;DHT22;29263;48.172;11.484;2023-08-31T10:00:51;15.90;99.90
43665;DHT22;29263;48.172;11.484;2023-08-31T10:03:18;15.90;99.90
43665;DHT22;29263;48.172;11.484;2023-08-31T10:05:47;15.90;99.90
43665;DHT22;29263;48.172;11.484;2023-08-31T10:08:14;15.90;99.90
43665;DHT22;29263;48.172;11.484;2023-08-31T10:10:40;16.00;99.90
43665;DHT22;29263;48.172;11.484;2023-08-31T10:13:06;16.10;99.90
43665;DHT22;29263;48.172;11.484;2023-08-31T10:15:33;16.10;99.90
43665;DHT22;29263;48.172;11.484;2023-08-31T10:18:00;16.20;99.90
43665;DHT22;29263;48.172;11.484;2023-08-31T10:20:26;16.30;99.90
43665;DHT22;29263;48.172;11.484;2023-08-31T10:23:14;16.40;99.90
43665;DHT22;29263;48.172;11.484;2023-08-31T10:28:24;16.60;99.90
43665;DHT22;29263;48.172;11.484;2023-08-31T10:33:34;16.70;99.90
43665;DHT22;29263;48.172;11.484;2023-08-31T10:36:00;16.70;99.90
43665;DHT22;29263;48.172;11.484;2023-08-31T10:38:32;16.70;99.90
43665;DHT22;29263;48.172;11.484;2023-08-31T10:46:27;16.60;99.90
43665;DHT22;29263;48.172;11.484;2023-08-31T10:51:32;16.70;99.90
43665;DHT22;29263;48.172;11.484;2023-08-31T10:54:30;16.60;99.90
43665;DHT22;29263;48.172;11.484;2023-08-31T11:02:07;16.00;99.90
43665;DHT22;29263;48.172;11.484;2023-08-31T11:04:55;15.90;99.90
43665;DHT22;29263;48.172;11.484;2023-08-31T11:07:25;16.00;99.90
43665;DHT22;29263;48.172;11.484;2023-08-31T11:09:51;16.10;99.90
43665;DHT22;29263;48.172;11.484;2023-08-31T11:12:17;16.20;99.90
43665;DHT22;29263;48.172;11.484;2023-08-31T11:14:42;16.30;99.90
43665;DHT22;29263;48.172;11.484;2023-08-31T11:17:08;16.40;99.90
43665;DHT22;29263;48.172;11.484;2023-08-31T11:19:35;16.40;99.90
43665;DHT22;29263;48.172;11.484;2023-08-31T11:22:02;16.40;99.90
43665;DHT22;29263;48.172;11.484;2023-08-31T11:24:32;16.50;99.90
43665;DHT22;29263;48.172;11.484;2023-08-31T11:26:58;16.60;99.90
43665;DHT22;29263;48.172;11.484;2023-08-31T11:29:24;16.70;99.90
43665;DHT22;29263;48.172;11.484;2023-08-31T11:31:49;16.70;99.90
43665;DHT22;29263;48.172;11.484;2023-08-31T11:34:16;16.80;99.90
43665;DHT22;29263;48.172;11.484;2023-08-31T11:36:43;16.90;99.90
43665;DHT22;29263;48.172;11.484;2023-08-31T11:39:09;16.90;99.90
43665;DHT22;29263;48.172;11.484;2023-08-31T11:41:36;16.90;99.90
43665;DHT22;29263;48.172;11.484;2023-08-31T11:44:15;16.80;99.90
43665;DHT22;29263;48.172;11.484;2023-08-31T11:46:44;16.80;99.90
43665;DHT22;29263;48.172;11.484;2023-08-31T11:49:10;16.80;99.90
43665;DHT22;29263;48.172;11.484;2023-08-31T11:51:39;16.80;99.90
43665;DHT22;29263;48.172;11.484;2023-08-31T11:54:05;16.80;99.90
43665;DHT22;29263;48.172;11.484;2023-08-31T11:56:44;16.80;99.90
43665;DHT22;29263;48.172;11.484;2023-08-31T11:59:16;16.80;99.90
43665;DHT22;29263;48.172;11.484;2023-08-31T12:01:46;16.60;99.90
43665;DHT22;29263;48.172;11.484;2023-08-31T12:04:24;16.50;99.90
43665;DHT22;29263;48.172;11.484;2023-08-31T12:06:51;16.50;99.90
43665;DHT22;29263;48.172;11.484;2023-08-31T12:09:18;16.50;99.90
43665;DHT22;29263;48.172;11.484;2023-08-31T12:11:50;16.60;99.90
43665;DHT22;29263;48.172;11.484;2023-08-31T12:14:21;16.70;99.90
43665;DHT22;29263;48.172;11.484;2023-08-31T12:16:48;16.70;99.90
43665;DHT22;29263;48.172;11.484;2023-08-31T12:19:14;16.70;99.90
43665;DHT22;29263;48.172;11.484;2023-08-31T12:21:41;16.80;99.90
43665;DHT22;29263;48.172;11.484;2023-08-31T12:24:07;17.00;99.90
43665;DHT22;29263;48.172;11.484;2023-08-31T12:26:34;17.10;99.10
43665;DHT22;29263;48.172;11.484;2023-08-31T12:29:00;17.20;98.80
43665;DHT22;29263;48.172;11.484;2023-08-31T12:31:26;17.50;99.90
43665;DHT22;29263;48.172;11.484;2023-08-31T12:33:52;17.60;99.90
43665;DHT22;29263;48.172;11.484;2023-08-31T12:36:17;17.80;99.90
43665;DHT22;29263;48.172;11.484;2023-08-31T12:38:43;17.90;98.60
43665;DHT22;29263;48.172;11.484;2023-08-31T12:41:09;17.70;97.80
43665;DHT22;29263;48.172;11.484;2023-08-31T12:43:35;17.70;98.40
43665;DHT22;29263;48.172;11.484;2023-08-31T12:46:01;17.60;99.10
43665;DHT22;29263;48.172;11.484;2023-08-31T12:48:26;17.50;99.20
43665;DHT22;29263;48.172;11.484;2023-08-31T12:50:52;17.50;99.50
43665;DHT22;29263;48.172;11.484;2023-08-31T12:53:21;17.60;99.70
43665;DHT22;29263;48.172;11.484;2023-08-31T12:55:47;17.50;98.30
43665;DHT22;29263;48.172;11.484;2023-08-31T12:58:13;17.40;99.10
43665;DHT22;29263;48.172;11.484;2023-08-31T13:00:38;17.40;98.80
43665;DHT22;29263;48.172;11.484;2023-08-31T13:03:04;17.40;99.60
43665;DHT22;29263;48.172;11.484;2023-08-31T13:05:32;17.40;98.40
43665;DHT22;29263;48.172;11.484;2023-08-31T13:07:57;17.40;99.10
43665;DHT22;29263;48.172;11.484;2023-08-31T13:10:23;17.50;97.10
43665;DHT22;29263;48.172;11.484;2023-08-31T13:12:49;17.50;97.20
43665;DHT22;29263;48.172;11.484;2023-08-31T13:15:14;17.60;97.60
43665;DHT22;29263;48.172;11.484;2023-08-31T13:17:40;17.70;97.30
43665;DHT22;29263;48.172;11.484;2023-08-31T13:20:06;17.90;95.90
43665;DHT22;29263;48.172;11.484;2023-08-31T13:22:34;17.80;95.10
43665;DHT22;29263;48.172;11.484;2023-08-31T13:25:00;17.90;95.40
43665;DHT22;29263;48.172;11.484;2023-08-31T13:27:25;18.10;94.50
43665;DHT22;29263;48.172;11.484;2023-08-31T13:29:51;18.40;94.50
43665;DHT22;29263;48.172;11.484;2023-08-31T13:32:17;18.50;94.60
43665;DHT22;29263;48.172;11.484;2023-08-31T13:34:42;18.70;94.40
43665;DHT22;29263;48.172;11.484;2023-08-31T13:37:08;18.90;94.10
43665;DHT22;29263;48.172;11.484;2023-08-31T13:39:35;19.20;94.40
43665;DHT22;29263;48.172;11.484;2023-08-31T13:42:05;19.20;93.10
43665;DHT22;29263;48.172;11.484;2023-08-31T13:44:32;19.10;92.10
43665;DHT22;29263;48.172;11.484;2023-08-31T13:46:58;18.80;92.20
43665;DHT22;29263;48.172;11.484;2023-08-31T13:49:23;18.70;92.90
43665;DHT22;29263;48.172;11.484;2023-08-31T13:51:49;18.80;94.90
43665;DHT22;29263;48.172;11.484;2023-08-31T13:54:15;19.20;92.90
43665;DHT22;29263;48.172;11.484;2023-08-31T13:56:40;19.30;92.60
43665;DHT22;29263;48.172;11.484;2023-08-31T13:59:06;19.40;92.00
43665;DHT22;29263;48.172;11.484;2023-08-31T14:01:31;19.60;92.80
43665;DHT22;29263;48.172;11.484;2023-08-31T14:03:57;19.60;90.90
43665;DHT22;29263;48.172;11.484;2023-08-31T14:06:23;19.70;91.80
43665;DHT22;29263;48.172;11.484;2023-08-31T14:08:48;19.50;91.70
43665;DHT22;29263;48.172;11.484;2023-08-31T14:11:14;19.40;92.20
43665;DHT22;29263;48.172;11.484;2023-08-31T14:13:42;19.20;91.40
43665;DHT22;29263;48.172;11.484;2023-08-31T14:16:08;19.10;93.30
43665;DHT22;29263;48.172;11.484;2023-08-31T14:18:33;19.00;92.60
43665;DHT22;29263;48.172;11.484;2023-08-31T14:20:59;19.00;92.60
43665;DHT22;29263;48.172;11.484;2023-08-31T14:23:26;18.80;93.00
43665;DHT22;29263;48.172;11.484;2023-08-31T14:25:52;18.70;93.50
43665;DHT22;29263;48.172;11.484;2023-08-31T14:28:17;18.70;93.30
43665;DHT22;29263;48.172;11.484;2023-08-31T14:30:43;18.70;92.40
43665;DHT22;29263;48.172;11.484;2023-08-31T14:33:09;18.60;92.50
43665;DHT22;29263;48.172;11.484;2023-08-31T14:35:38;18.50;92.50
43665;DHT22;29263;48.172;11.484;2023-08-31T14:38:04;18.40;93.00
43665;DHT22;29263;48.172;11.484;2023-08-31T14:40:30;18.40;92.20
43665;DHT22;29263;48.172;11.484;2023-08-31T14:42:55;18.40;93.30
43665;DHT22;29263;48.172;11.484;2023-08-31T14:45:21;18.40;94.00
43665;DHT22;29263;48.172;11.484;2023-08-31T14:47:47;18.50;94.50
43665;DHT22;29263;48.172;11.484;2023-08-31T14:50:12;18.50;94.60
43665;DHT22;29263;48.172;11.484;2023-08-31T14:52:38;18.50;93.40
43665;DHT22;29263;48.172;11.484;2023-08-31T14:55:04;18.50;93.30
43665;DHT22;29263;48.172;11.484;2023-08-31T14:57:30;18.50;93.30
43665;DHT22;29263;48.172;11.484;2023-08-31T14:59:56;18.50;93.60
43665;DHT22;29263;48.172;11.484;2023-08-31T15:02:27;18.40;93.00
43665;DHT22;29263;48.172;11.484;2023-08-31T15:04:52;18.30;92.00
43665;DHT22;29263;48.172;11.484;2023-08-31T15:07:18;18.30;93.20
43665;DHT22;29263;48.172;11.484;2023-08-31T15:09:44;18.30;92.60
43665;DHT22;29263;48.172;11.484;2023-08-31T15:12:10;18.30;91.90
43665;DHT22;29263;48.172;11.484;2023-08-31T15:14:37;18.30;92.40
43665;DHT22;29263;48.172;11.484;2023-08-31T15:17:04;18.20;92.00
43665;DHT22;29263;48.172;11.484;2023-08-31T15:19:30;18.30;92.20
43665;DHT22;29263;48.172;11.484;2023-08-31T15:21:58;18.20;92.70
43665;DHT22;29263;48.172;11.484;2023-08-31T15:24:23;18.20;91.30
43665;DHT22;29263;48.172;11.484;2023-08-31T15:26:49;18.10;92.30
43665;DHT22;29263;48.172;11.484;2023-08-31T15:29:14;18.10;92.20
43665;DHT22;29263;48.172;11.484;2023-08-31T15:31:40;18.00;91.50
43665;DHT22;29263;48.172;11.484;2023-08-31T15:34:06;18.00;91.90
43665;DHT22;29263;48.172;11.484;2023-08-31T15:36:31;18.00;92.40
43665;DHT22;29263;48.172;11.484;2023-08-31T15:38:57;18.00;93.60
43665;DHT22;29263;48.172;11.484;2023-08-31T15:41:22;18.00;92.20
43665;DHT22;29263;48.172;11.484;2023-08-31T15:43:48;18.00;92.40
43665;DHT22;29263;48.172;11.484;2023-08-31T15:46:15;17.90;93.90
43665;DHT22;29263;48.172;11.484;2023-08-31T15:48:42;18.00;93.00
43665;DHT22;29263;48.172;11.484;2023-08-31T15:51:08;17.90;92.70
43665;DHT22;29263;48.172;11.484;2023-08-31T15:53:33;17.90;92.90
43665;DHT22;29263;48.172;11.484;2023-08-31T15:55:59;17.90;92.90
43665;DHT22;29263;48.172;11.484;2023-08-31T15:58:25;17.80;94.40